Time;durP1;ratioP1;P1;durP2;ratioP2;P2;SDS_P1;SDS_P2;PMS_P1;PMS_P2;Temp;Humidity;BMP_temperature;BMP_pressure;BME280_temperature;BME280_humidity;BME280_pressure;Samples;Min_cycle;Max_cycle;Signal;HPM_P1;HPM_P2
2023/03/15 00:02:21;;;;;;;5.75;3.58;;;;;;;10.16;66.18;98588.63;7711101;32;40823;-86
2023/03/15 00:06:37;;;;;;;7.78;3.60;;;;;;;10.79;63.81;98586.44;7711130;32;37907;-86
2023/03/15 00:10:53;;;;;;;6.22;3.72;;;;;;;10.46;64.63;98576.41;7710956;32;37186;-87
2023/03/15 00:15:13;;;;;;;4.10;2.90;;;;;;;10.18;64.62;98580.16;7711033;32;39069;-87
2023/03/15 00:19:29;;;;;;;8.25;3.65;;;;;;;10.50;63.43;98582.87;7682896;32;39944;-86
2023/03/15 00:23:46;;;;;;;3.58;2.47;;;;;;;9.95;64.32;98599.84;7682959;32;38576;-86
2023/03/15 00:28:02;;;;;;;4.07;2.92;;;;;;;9.91;64.01;98600.72;7684051;32;37028;-86
2023/03/15 00:32:19;;;;;;;6.57;3.05;;;;;;;10.02;64.01;98610.38;7683900;32;39422;-86
2023/03/15 00:36:36;;;;;;;2.67;2.28;;;;;;;10.11;63.16;98607.78;7683828;32;40648;-87
2023/03/15 00:40:52;;;;;;;4.03;2.70;;;;;;;10.05;62.23;98615.19;7682538;32;37976;-87
2023/03/15 00:45:09;;;;;;;3.25;2.70;;;;;;;9.76;62.58;98618.91;7683848;32;37107;-86
2023/03/15 00:49:25;;;;;;;2.58;2.33;;;;;;;9.93;62.06;98623.00;7682440;32;39308;-86
2023/03/15 00:53:43;;;;;;;5.97;3.10;;;;;;;9.80;62.76;98623.78;7683585;32;39764;-86
2023/03/15 00:58:00;;;;;;;2.72;2.50;;;;;;;9.76;62.10;98621.66;7683415;32;38022;-85
2023/03/15 01:02:16;;;;;;;2.97;2.42;;;;;;;10.15;61.02;98620.47;7683342;32;36976;-86
2023/03/15 01:06:32;;;;;;;3.85;2.50;;;;;;;9.94;61.32;98630.88;7683398;32;40347;-85
2023/03/15 01:10:49;;;;;;;2.62;2.30;;;;;;;10.16;60.63;98629.47;7683030;32;40880;-86
2023/03/15 01:15:07;;;;;;;4.18;2.40;;;;;;;9.87;60.29;98629.66;7682780;32;38661;-86
2023/03/15 01:19:23;;;;;;;3.00;2.33;;;;;;;9.78;59.07;98633.03;7701817;32;37226;-86
2023/03/15 01:23:40;;;;;;;2.70;2.33;;;;;;;9.83;59.15;98634.06;7709442;32;39140;-86
2023/03/15 01:27:56;;;;;;;4.60;2.40;;;;;;;9.88;58.54;98633.97;7695677;32;39899;-87
2023/03/15 01:32:13;;;;;;;2.40;2.20;;;;;;;9.59;59.08;98629.53;7709133;32;37883;-87
2023/03/15 01:36:30;;;;;;;2.78;2.00;;;;;;;9.44;58.87;98633.25;7697927;32;37066;-87
2023/03/15 01:40:46;;;;;;;3.28;2.30;;;;;;;9.86;58.01;98622.59;7712991;32;39030;-87
2023/03/15 01:45:02;;;;;;;2.42;2.00;;;;;;;9.72;57.20;98612.44;7713175;32;38255;-85
2023/03/15 01:49:28;;;;;;;2.55;1.90;;;;;;;9.94;57.37;98608.31;7712699;32;38710;-86
2023/03/15 01:53:49;;;;;;;4.45;2.03;;;;;;;9.85;57.75;98607.34;7712783;32;38321;-86
2023/03/15 01:58:06;;;;;;;3.47;2.30;;;;;;;9.29;58.88;98608.97;7699390;32;39187;-86
2023/03/15 02:02:24;;;;;;;2.92;2.00;;;;;;;9.29;59.30;98608.97;7699090;32;39984;-85
2023/03/15 02:06:45;;;;;;;2.40;2.20;;;;;;;9.30;58.53;98605.97;7712444;32;37813;-85
2023/03/15 02:11:03;;;;;;;5.30;2.17;;;;;;;9.45;58.09;98617.72;7699566;32;37047;-86
2023/03/15 02:15:19;;;;;;;6.35;2.40;;;;;;;9.47;57.41;98610.06;7712445;32;39356;-86
2023/03/15 02:19:56;;;;;;;2.30;2.10;;;;;;;8.94;59.19;98622.69;7712134;32;40586;-86
2023/03/15 02:24:44;;;;;;;4.12;2.20;;;;;;;9.12;58.59;98628.47;7699865;32;37772;-87
2023/03/15 02:29:00;;;;;;;2.75;2.30;;;;;;;9.29;58.85;98622.56;7712244;32;37068;-87
2023/03/15 02:33:20;;;;;;;4.75;2.28;;;;;;;9.48;57.95;98630.75;7712544;32;39394;-86
2023/03/15 02:37:36;;;;;;;2.37;2.17;;;;;;;9.78;57.33;98633.03;7712204;32;39893;-86
2023/03/15 02:41:55;;;;;;;5.80;2.20;;;;;;;9.64;57.40;98620.44;7712042;32;39384;-87
2023/03/15 02:46:12;;;;;;;3.20;2.28;;;;;;;9.59;57.97;98622.16;7697899;32;37156;-86
2023/03/15 02:50:29;;;;;;;2.40;2.17;;;;;;;9.10;59.50;98638.84;7698414;32;40092;-87
2023/03/15 02:54:45;;;;;;;3.12;2.42;;;;;;;9.39;58.96;98625.94;7711951;32;39915;-86
2023/03/15 02:59:01;;;;;;;3.60;2.40;;;;;;;9.02;59.79;98643.81;7711893;32;38474;-86
2023/03/15 03:03:18;;;;;;;2.65;2.35;;;;;;;9.45;59.00;98639.47;7711957;32;36856;-86
2023/03/15 03:07:35;;;;;;;3.97;2.58;;;;;;;8.89;58.26;98633.62;7712070;32;39326;-86
2023/03/15 03:11:51;;;;;;;2.97;2.20;;;;;;;9.08;57.99;98644.56;7698008;32;40686;-87
2023/03/15 03:16:08;;;;;;;2.60;2.40;;;;;;;9.05;57.46;98649.78;7711631;32;38525;-86
2023/03/15 03:20:26;;;;;;;2.47;2.28;;;;;;;9.00;57.71;98656.91;7711581;32;37119;-86
2023/03/15 03:24:44;;;;;;;2.30;2.10;;;;;;;9.15;56.59;98657.81;7711559;32;39325;-86
2023/03/15 03:29:01;;;;;;;2.30;2.10;;;;;;;9.19;56.17;98642.53;7711588;32;40094;-86
2023/03/15 03:33:17;;;;;;;2.12;1.92;;;;;;;8.98;55.48;98644.69;7711485;32;38569;-86
2023/03/15 03:37:34;;;;;;;2.17;1.98;;;;;;;8.64;54.83;98653.72;7711693;32;36827;-87
2023/03/15 03:41:51;;;;;;;1.95;1.67;;;;;;;8.66;54.85;98654.28;7711514;32;39453;-86
2023/03/15 03:46:07;;;;;;;1.90;1.70;;;;;;;8.65;54.37;98658.06;7697713;32;40801;-86
2023/03/15 03:50:24;;;;;;;2.05;1.70;;;;;;;9.21;52.41;98640.34;7711301;32;37619;-86
2023/03/15 03:54:41;;;;;;;1.60;1.50;;;;;;;9.22;53.24;98636.50;7711364;32;37049;-86
2023/03/15 03:58:57;;;;;;;1.77;1.67;;;;;;;8.89;53.24;98639.06;7711158;32;39105;-86
2023/03/15 04:03:14;;;;;;;2.03;1.80;;;;;;;9.07;52.80;98617.66;7711239;32;39757;-87
2023/03/15 04:07:30;;;;;;;2.10;2.00;;;;;;;9.14;53.21;98623.56;7710954;32;38498;-87
2023/03/15 04:11:46;;;;;;;2.53;2.00;;;;;;;8.97;53.68;98630.28;7710961;32;37371;-87
2023/03/15 04:16:05;;;;;;;2.22;2.00;;;;;;;8.82;53.83;98644.03;7710987;32;40122;-86
2023/03/15 04:20:22;;;;;;;2.20;2.10;;;;;;;8.35;55.58;98656.44;7710788;32;39763;-86
2023/03/15 04:24:38;;;;;;;2.55;2.15;;;;;;;8.21;56.09;98657.06;7697215;32;37865;-87
2023/03/15 04:28:56;;;;;;;2.22;2.10;;;;;;;8.34;55.50;98660.22;7710634;32;37887;-86
2023/03/15 04:33:13;;;;;;;2.70;2.50;;;;;;;8.19;55.04;98661.16;7697199;32;38177;-86
2023/03/15 04:37:32;;;;;;;4.10;2.42;;;;;;;8.04;56.31;98668.31;7710557;32;39948;-86
2023/03/15 04:41:49;;;;;;;3.00;2.70;;;;;;;8.42;55.32;98667.75;7710481;32;37863;-86
2023/03/15 04:46:05;;;;;;;2.65;2.40;;;;;;;7.82;56.22;98671.44;7710474;32;37853;-86
2023/03/15 04:50:23;;;;;;;3.20;2.90;;;;;;;7.83;56.14;98672.25;7710092;32;39842;-86
2023/03/15 04:54:39;;;;;;;3.35;2.97;;;;;;;7.67;56.62;98687.81;7710133;32;39896;-87
2023/03/15 04:58:55;;;;;;;3.83;3.08;;;;;;;7.26;58.00;98698.84;7710027;32;37609;-87
2023/03/15 05:03:12;;;;;;;4.55;2.90;;;;;;;7.33;57.74;98699.38;7709958;32;36903;-87
2023/03/15 05:07:32;;;;;;;4.78;3.10;;;;;;;7.42;57.19;98727.53;7709900;32;39324;-86
2023/03/15 05:11:49;;;;;;;6.60;3.60;;;;;;;6.78;58.92;98731.75;7698611;32;39945;-86
2023/03/15 05:16:06;;;;;;;3.80;3.40;;;;;;;7.01;58.06;98735.78;7713216;32;38397;-86
2023/03/15 05:20:22;;;;;;;4.28;3.35;;;;;;;7.24;56.97;98728.13;7713020;32;37788;-86
2023/03/15 05:24:38;;;;;;;3.45;3.15;;;;;;;7.33;57.35;98731.91;7713270;32;39409;-86
2023/03/15 05:28:54;;;;;;;3.58;3.10;;;;;;;6.90;58.31;98740.41;7712932;32;40093;-86
2023/03/15 05:33:11;;;;;;;4.10;3.60;;;;;;;6.41;59.99;98746.38;7712853;32;37862;-86
2023/03/15 05:37:27;;;;;;;4.97;3.55;;;;;;;6.51;59.66;98742.87;7712933;32;38174;-85
2023/03/15 05:41:44;;;;;;;5.53;4.18;;;;;;;6.49;60.31;98742.31;7712995;32;38964;-86
2023/03/15 05:46:00;;;;;;;5.15;4.12;;;;;;;6.70;59.82;98752.06;7712832;32;40820;-85
2023/03/15 05:50:17;;;;;;;6.60;4.40;;;;;;;6.44;61.28;98739.62;7712685;32;37937;-86
2023/03/15 05:54:33;;;;;;;7.57;4.60;;;;;;;6.37;61.74;98735.28;7712768;32;37047;-86
2023/03/15 05:58:49;;;;;;;6.12;4.57;;;;;;;6.50;60.78;98738.53;7712814;32;40006;-87
2023/03/15 06:03:06;;;;;;;6.47;4.50;;;;;;;6.80;59.89;98742.31;7712635;32;40632;-86
2023/03/15 06:07:22;;;;;;;7.37;5.03;;;;;;;6.67;60.42;98749.09;7712506;32;37856;-86
2023/03/15 06:11:38;;;;;;;9.95;5.50;;;;;;;6.87;60.28;98748.28;7712511;32;37207;-86
2023/03/15 06:15:55;;;;;;;8.23;5.10;;;;;;;7.02;59.50;98750.13;7712469;32;39301;-86
2023/03/15 06:20:11;;;;;;;9.40;5.30;;;;;;;7.01;59.59;98753.94;7711876;32;39992;-86
2023/03/15 06:24:28;;;;;;;6.62;4.80;;;;;;;7.20;58.99;98762.31;7711835;32;37491;-86
2023/03/15 06:28:45;;;;;;;10.77;5.05;;;;;;;7.38;57.97;98769.84;7712385;32;37070;-85
2023/03/15 06:33:01;;;;;;;8.93;5.07;;;;;;;7.30;57.88;98767.69;7712155;32;39260;-85
2023/03/15 06:37:18;;;;;;;8.70;5.18;;;;;;;7.39;57.43;98781.50;7712109;32;40790;-86
2023/03/15 06:41:57;;;;;;;9.73;5.30;;;;;;;6.23;59.35;98785.59;7700304;32;38513;-86
2023/03/15 06:46:13;;;;;;;8.10;4.78;;;;;;;6.58;58.88;98787.53;7712084;32;37790;-86
2023/03/15 06:50:29;;;;;;;13.32;6.53;;;;;;;6.58;58.63;98795.66;7712167;32;39978;-85
2023/03/15 06:55:01;;;;;;;9.95;5.00;;;;;;;6.49;57.97;98789.16;7712127;32;39858;-85
2023/03/15 06:59:17;;;;;;;11.30;5.47;;;;;;;6.82;57.29;98797.03;7711792;32;37611;-85
2023/03/15 07:03:34;;;;;;;9.48;5.12;;;;;;;6.81;57.21;98803.53;7711935;32;37243;-87
2023/03/15 07:07:50;;;;;;;11.00;5.43;;;;;;;6.60;56.94;98822.47;7712066;32;39221;-86
2023/03/15 07:12:08;;;;;;;9.10;4.93;;;;;;;6.72;56.57;98809.47;7711704;32;40819;-86
2023/03/15 07:16:25;;;;;;;8.23;4.28;;;;;;;7.43;54.82;98815.91;7711598;32;37549;-86
2023/03/15 07:20:41;;;;;;;11.25;5.78;;;;;;;7.34;54.33;98825.69;7711807;32;37019;-86
2023/03/15 07:24:58;;;;;;;8.80;4.75;;;;;;;7.21;54.50;98815.41;7711646;32;39893;-86
2023/03/15 07:29:14;;;;;;;5.95;4.10;;;;;;;7.29;53.52;98823.00;7711540;32;40738;-87
2023/03/15 07:33:32;;;;;;;7.55;3.95;;;;;;;7.44;53.51;98841.16;7711252;32;38713;-87
2023/03/15 07:37:48;;;;;;;6.72;3.92;;;;;;;7.67;52.93;98837.00;7711522;32;37117;-86
2023/03/15 07:42:06;;;;;;;7.05;3.80;;;;;;;7.93;52.92;98836.94;7711441;32;39426;-86
2023/03/15 07:46:22;;;;;;;4.97;3.40;;;;;;;7.84;51.44;98840.22;7711435;32;39841;-86
2023/03/15 07:50:39;;;;;;;7.43;4.30;;;;;;;7.65;52.56;98844.63;7711447;32;37972;-87
2023/03/15 07:54:55;;;;;;;4.40;3.50;;;;;;;8.20;51.43;98855.56;7711301;32;37793;-87
2023/03/15 07:59:11;;;;;;;7.05;4.07;;;;;;;7.66;51.92;98866.06;7711233;32;39410;-86
2023/03/15 08:03:28;;;;;;;8.23;3.83;;;;;;;7.90;52.45;98868.97;7711187;32;39627;-86
2023/03/15 08:07:46;;;;;;;8.05;4.47;;;;;;;7.71;51.70;98867.94;7706085;32;159522;-87
2023/03/15 08:12:02;;;;;;;7.55;4.18;;;;;;;7.50;52.03;98875.28;7710996;32;37050;-86
2023/03/15 08:16:18;;;;;;;5.68;3.33;;;;;;;7.75;51.75;98871.72;7710868;32;40100;-86
2023/03/15 08:20:35;;;;;;;6.25;3.53;;;;;;;7.87;51.02;98883.09;7710739;32;39909;-87
2023/03/15 08:24:52;;;;;;;7.50;3.53;;;;;;;7.38;51.86;98882.91;7710265;32;37563;-87
2023/03/15 08:29:08;;;;;;;8.57;4.28;;;;;;;7.65;50.44;98894.25;7710645;32;37231;-86
2023/03/15 08:33:28;;;;;;;8.68;3.58;;;;;;;7.29;51.22;98902.44;7710619;32;39365;-87
2023/03/15 08:37:47;;;;;;;5.60;3.62;;;;;;;7.50;49.63;98913.25;7710609;32;39410;-87
2023/03/15 08:42:05;;;;;;;8.38;4.43;;;;;;;7.63;49.55;98915.44;7710478;32;38690;-87
2023/03/15 08:46:21;;;;;;;7.53;4.18;;;;;;;7.59;49.41;98911.66;7709421;32;37817;-87
2023/03/15 08:50:38;;;;;;;8.02;3.83;;;;;;;7.43;49.65;98918.16;7710312;32;39941;-87
2023/03/15 08:54:54;;;;;;;8.15;3.67;;;;;;;7.53;48.95;98924.38;7710100;32;40732;-86
2023/03/15 08:59:10;;;;;;;7.15;3.72;;;;;;;6.98;49.31;98933.34;7710052;32;37896;-87
2023/03/15 09:03:37;;;;;;;11.80;4.80;;;;;;;7.25;49.88;98930.38;7709975;32;37019;-86
2023/03/15 09:07:54;;;;;;;9.68;5.28;;;;;;;7.59;48.79;98948.78;7709658;32;39396;-87
2023/03/15 09:12:10;;;;;;;12.23;5.32;;;;;;;7.20;48.92;98952.88;7709666;32;40720;-86
2023/03/15 09:16:26;;;;;;;8.57;4.82;;;;;;;7.38;49.47;98965.09;7709371;32;38023;-87
2023/03/15 09:20:43;;;;;;;9.75;4.25;;;;;;;7.31;49.21;98975.38;7709373;32;38008;-87
2023/03/15 09:24:59;;;;;;;7.05;4.05;;;;;;;7.45;48.77;98979.19;7709366;32;39199;-86
2023/03/15 09:29:15;;;;;;;8.38;3.60;;;;;;;7.18;49.69;98995.69;7709288;32;40866;-86
2023/03/15 09:33:32;;;;;;;6.72;3.97;;;;;;;7.76;48.44;98992.75;7709057;32;38409;-87
2023/03/15 09:37:49;;;;;;;10.27;3.55;;;;;;;7.85;48.05;98996.53;7709005;32;37801;-86
2023/03/15 09:42:13;;;;;;;6.28;3.60;;;;;;;7.81;48.75;99005.47;7708954;32;39361;-87
2023/03/15 09:46:54;;;;;;;9.05;4.00;;;;;;;7.65;47.99;99007.41;7708836;32;39739;-86
2023/03/15 09:51:23;;;;;;;10.57;4.22;;;;;;;7.99;47.91;99017.69;7693667;32;37419;-85
2023/03/15 09:55:41;;;;;;;8.43;3.97;;;;;;;7.93;47.33;99011.44;7696119;32;37184;-85
2023/03/15 09:59:58;;;;;;;7.90;3.40;;;;;;;7.81;47.92;99013.62;7699082;32;39394;-86
2023/03/15 10:04:18;;;;;;;6.10;3.70;;;;;;;8.28;46.84;99009.75;7712698;32;39693;-86
2023/03/15 10:08:35;;;;;;;7.97;3.90;;;;;;;8.28;47.32;99012.47;7698872;32;37770;-86
2023/03/15 10:13:07;;;;;;;6.62;3.40;;;;;;;8.63;45.71;99017.00;7712431;32;37802;-87
2023/03/15 10:17:52;;;;;;;12.77;3.70;;;;;;;8.82;45.43;99025.34;7712289;32;39336;-86
2023/03/15 10:22:32;;;;;;;5.82;3.30;;;;;;;8.88;46.43;99012.53;7712238;32;39927;-87
2023/03/15 10:26:50;;;;;;;8.63;3.78;;;;;;;8.81;45.17;99014.75;7712308;32;37912;-87
2023/03/15 10:31:17;;;;;;;4.93;3.40;;;;;;;8.89;44.78;99016.09;7712333;32;36657;-87
2023/03/15 10:35:48;;;;;;;8.05;2.92;;;;;;;9.03;43.68;99023.31;7700900;32;39130;-86
2023/03/15 10:40:14;;;;;;;7.20;3.37;;;;;;;9.32;43.45;99017.19;7712277;32;40061;-86
2023/03/15 10:44:35;;;;;;;8.10;3.75;;;;;;;9.22;43.02;99003.66;7712432;32;38752;-88
2023/03/15 10:49:19;;;;;;;6.68;3.30;;;;;;;9.36;43.38;98999.19;7686605;32;37641;-86
2023/03/15 10:53:36;;;;;;;;;;;;;;;9.51;41.61;99008.34;7710192;32;39937;-87
2023/03/15 10:57:58;;;;;;;5.50;3.15;;;;;;;9.53;40.97;99017.03;7712204;32;40227;-86
2023/03/15 11:02:23;;;;;;;6.30;2.90;;;;;;;9.77;41.94;99026.09;7711926;32;38542;-87
2023/03/15 11:06:46;;;;;;;9.75;4.03;;;;;;;9.83;41.15;99021.44;7698242;32;37856;-87
2023/03/15 11:11:02;;;;;;;7.60;3.20;;;;;;;9.90;41.43;99018.34;7711909;32;39395;-87
2023/03/15 11:15:19;;;;;;;7.45;3.17;;;;;;;9.95;40.50;99029.19;7711557;32;39941;-86
2023/03/15 11:19:46;;;;;;;6.12;3.40;;;;;;;9.83;39.70;99026.88;7711424;32;38612;-86
2023/03/15 11:24:04;;;;;;;4.18;2.87;;;;;;;9.83;37.87;99026.03;7698586;32;37997;-86
2023/03/15 11:28:30;;;;;;;6.35;3.15;;;;;;;10.17;38.31;99036.09;7698439;32;39174;-86
2023/03/15 11:32:47;;;;;;;6.45;2.70;;;;;;;10.16;38.01;99048.91;7711560;32;40024;-87
2023/03/15 11:37:25;;;;;;;5.60;3.00;;;;;;;10.32;36.21;99055.03;7711506;32;38025;-87
2023/03/15 11:41:54;;;;;;;7.78;3.50;;;;;;;9.88;37.19;99054.06;7700051;32;36822;-86
2023/03/15 11:46:32;;;;;;;4.53;2.80;;;;;;;10.33;37.12;99056.66;7711486;32;39339;-86
2023/03/15 11:50:51;;;;;;;4.22;2.97;;;;;;;10.21;36.78;99064.37;7699095;32;40458;-86
2023/03/15 11:55:25;;;;;;;8.68;3.37;;;;;;;10.08;36.99;99063.94;7711515;32;38770;-87
2023/03/15 11:59:44;;;;;;;5.37;2.83;;;;;;;10.11;36.64;99077.00;7711354;32;37114;-87
2023/03/15 12:04:32;;;;;;;5.75;3.20;;;;;;;10.10;35.56;99074.56;7697833;32;39175;-87
2023/03/15 12:08:50;;;;;;;5.82;3.35;;;;;;;10.12;35.10;99073.19;7710968;32;39884;-86
2023/03/15 12:13:25;;;;;;;6.22;2.87;;;;;;;9.97;35.52;99073.31;7710859;32;38837;-87
2023/03/15 12:17:45;;;;;;;6.90;2.80;;;;;;;10.25;36.42;99073.63;7698046;32;36746;-87
2023/03/15 12:22:02;;;;;;;7.75;2.97;;;;;;;10.30;34.49;99073.56;7710947;32;39286;-86
2023/03/15 12:26:47;;;;;;;8.40;3.50;;;;;;;10.55;33.77;99074.44;7710647;32;40781;-87
2023/03/15 12:31:13;;;;;;;4.43;2.60;;;;;;;10.61;33.98;99086.91;7710497;32;38621;-87
2023/03/15 12:35:37;;;;;;;5.62;2.72;;;;;;;11.13;33.60;99090.66;7710444;32;38547;-86
2023/03/15 12:40:19;;;;;;;7.22;3.08;;;;;;;10.95;32.46;99096.88;7697516;32;39473;-86
2023/03/15 12:44:42;;;;;;;4.50;2.65;;;;;;;11.00;33.87;99094.09;7710270;32;40792;-87
2023/03/15 12:49:12;;;;;;;6.57;2.55;;;;;;;11.50;32.51;99105.44;7710428;32;37715;-86
2023/03/15 12:53:35;;;;;;;11.15;2.72;;;;;;;11.81;31.94;99094.06;7710072;32;37297;-86
2023/03/15 12:57:55;;;;;;;;;;;;;;;11.69;30.16;99101.91;7710358;32;39793;-87
2023/03/15 13:02:43;;;;;;;5.40;2.80;;;;;;;11.98;30.29;99099.00;7710054;32;39619;-86
2023/03/15 13:07:06;;;;;;;4.60;2.37;;;;;;;12.23;30.01;99106.00;7709828;32;37684;-87
2023/03/15 13:11:47;;;;;;;6.40;2.10;;;;;;;12.16;29.66;99100.91;7710114;32;36984;-87
2023/03/15 13:16:23;;;;;;;4.90;2.17;;;;;;;12.24;30.04;99113.06;7696732;32;39350;-87
2023/03/15 13:20:46;;;;;;;6.50;2.40;;;;;;;12.01;27.90;99110.16;7696914;32;39684;-87
2023/03/15 13:25:30;;;;;;;5.62;2.40;;;;;;;12.13;28.20;99128.03;7709295;32;38575;-87
2023/03/15 13:29:47;;;;;;;4.20;1.92;;;;;;;11.79;27.52;99129.84;7696956;32;37843;-87
2023/03/15 13:34:20;;;;;;;4.53;2.22;;;;;;;11.47;28.44;99141.53;7712614;32;39601;-86
2023/03/15 13:38:41;;;;;;;;;;;;;;;11.50;29.36;99143.62;7713145;32;39920;-86
2023/03/15 13:43:00;;;;;;;5.87;1.80;;;;;;;11.68;30.83;99155.69;7712928;32;38021;-86
2023/03/15 13:47:23;;;;;;;6.75;2.22;;;;;;;11.39;30.55;99166.72;7712837;32;37981;-87
2023/03/15 13:51:40;;;;;;;5.87;2.25;;;;;;;10.93;31.82;99172.72;7712706;32;39333;-86
2023/03/15 13:55:57;;;;;;;5.55;2.30;;;;;;;10.72;30.77;99178.37;7699038;32;41576;-87
2023/03/15 14:00:18;;;;;;;8.85;1.95;;;;;;;10.47;32.14;99190.34;7712456;32;37888;-87
2023/03/15 14:04:37;;;;;;;4.37;2.12;;;;;;;10.41;31.54;99208.63;7712641;32;38640;-87
2023/03/15 14:08:59;;;;;;;4.20;2.17;;;;;;;10.18;32.50;99193.78;7698936;32;40092;-87
2023/03/15 14:13:26;;;;;;;6.55;2.50;;;;;;;10.22;31.06;99194.03;7712339;32;39939;-86
2023/03/15 14:18:00;;;;;;;5.68;2.10;;;;;;;9.89;32.54;99204.59;7699853;32;36140;-87
2023/03/15 14:22:18;;;;;;;4.75;2.30;;;;;;;9.75;33.23;99205.22;7712479;32;37370;-86
2023/03/15 14:26:35;;;;;;;9.30;2.80;;;;;;;10.00;33.14;99202.63;7698742;32;40100;-86
2023/03/15 14:30:57;;;;;;;9.07;2.80;;;;;;;9.91;31.22;99214.09;7699195;32;40045;-84
2023/03/15 14:35:19;;;;;;;7.12;2.25;;;;;;;10.14;31.73;99219.97;7712230;32;37543;-87
2023/03/15 14:39:41;;;;;;;6.37;2.53;;;;;;;10.14;32.06;99214.50;7712443;32;37549;-86
2023/03/15 14:43:59;;;;;;;6.68;2.50;;;;;;;10.13;32.79;99224.59;7711247;32;39205;-86
2023/03/15 14:48:30;;;;;;;8.23;3.00;;;;;;;10.14;32.33;99233.56;7712007;32;39560;-86
2023/03/15 14:52:48;;;;;;;4.95;2.30;;;;;;;10.12;31.98;99235.78;7698293;32;38086;-86
2023/03/15 14:57:04;;;;;;;5.43;2.33;;;;;;;9.88;31.03;99241.91;7711898;32;37861;-85
2023/03/15 15:01:24;;;;;;;4.60;2.33;;;;;;;10.02;31.91;99239.37;7711798;32;39461;-86
2023/03/15 15:05:40;;;;;;;9.88;2.78;;;;;;;9.54;31.49;99247.25;7698300;32;40819;-86
2023/03/15 15:09:57;;;;;;;7.90;2.53;;;;;;;9.73;31.56;99256.41;7711648;32;38598;-86
2023/03/15 15:14:14;;;;;;;7.85;2.90;;;;;;;9.84;32.11;99257.16;7711710;32;37033;-86
2023/03/15 15:18:32;;;;;;;8.48;3.28;;;;;;;9.61;31.16;99264.09;7711454;32;40147;-85
2023/03/15 15:22:49;;;;;;;8.95;2.78;;;;;;;9.15;31.01;99267.75;7712040;32;39910;-86
2023/03/15 15:27:08;;;;;;;5.20;2.70;;;;;;;9.20;31.65;99275.09;7711513;32;38405;-86
2023/03/15 15:31:32;;;;;;;4.80;2.30;;;;;;;9.20;31.56;99285.97;7711568;32;37076;-86
2023/03/15 15:35:54;;;;;;;7.05;2.62;;;;;;;8.65;30.96;99291.16;7711761;32;39471;-86
2023/03/15 15:40:19;;;;;;;5.25;2.47;;;;;;;8.97;31.36;99315.37;7697936;32;39862;-86
2023/03/15 15:44:35;;;;;;;8.52;3.05;;;;;;;8.85;31.48;99328.41;7711412;32;36836;-86
2023/03/15 15:48:52;;;;;;;7.47;3.50;;;;;;;8.57;31.20;99322.41;7711348;32;37248;-86
2023/03/15 15:53:14;;;;;;;11.23;2.90;;;;;;;8.90;31.14;99325.69;7711217;32;40081;-86
2023/03/15 15:57:30;;;;;;;3.65;2.20;;;;;;;8.74;30.70;99337.63;7698020;32;40086;-86
2023/03/15 16:01:50;;;;;;;6.22;2.65;;;;;;;9.02;30.31;99345.28;7697439;32;37817;-86
2023/03/15 16:06:18;;;;;;;4.97;2.62;;;;;;;9.03;30.16;99346.06;7699069;32;36712;-85
2023/03/15 16:10:35;;;;;;;4.72;2.45;;;;;;;8.53;30.45;99355.81;7711095;32;39227;-86
2023/03/15 16:14:51;;;;;;;6.22;2.58;;;;;;;8.77;30.14;99353.41;7697286;32;40848;-85
2023/03/15 16:19:08;;;;;;;4.37;2.70;;;;;;;8.58;29.73;99356.66;7710667;32;37513;-85
2023/03/15 16:23:24;;;;;;;6.68;2.90;;;;;;;8.38;30.51;99365.56;7710753;32;37048;-85
2023/03/15 16:27:41;;;;;;;5.87;2.90;;;;;;;8.28;31.27;99369.03;7710644;32;39324;-86
2023/03/15 16:31:58;;;;;;;4.18;2.78;;;;;;;8.15;31.98;99374.97;7710765;32;40676;-86
2023/03/15 16:36:33;;;;;;;10.68;3.33;;;;;;;8.16;32.26;99386.63;7710554;32;38089;-85
2023/03/15 16:40:51;;;;;;;7.60;2.80;;;;;;;8.26;31.29;99400.25;7696999;32;37050;-86
2023/03/15 16:45:12;;;;;;;3.95;2.83;;;;;;;8.09;31.83;99403.19;7710778;32;39504;-86
2023/03/15 16:49:29;;;;;;;6.35;2.70;;;;;;;8.15;31.35;99412.97;7710362;32;40189;-86
2023/03/15 16:53:45;;;;;;;5.10;2.87;;;;;;;7.89;31.94;99415.56;7710118;32;38534;-86
2023/03/15 16:58:10;;;;;;;5.45;3.30;;;;;;;7.85;32.61;99416.38;7696369;32;37782;-86
2023/03/15 17:02:27;;;;;;;4.60;2.62;;;;;;;8.04;32.13;99430.31;7710076;32;40175;-86
2023/03/15 17:06:44;;;;;;;8.07;3.00;;;;;;;7.94;31.17;99428.34;7697872;32;39749;-85
2023/03/15 17:11:01;;;;;;;6.85;3.12;;;;;;;7.48;32.62;99425.34;7699396;32;38467;-85
2023/03/15 17:15:20;;;;;;;7.47;2.87;;;;;;;7.67;31.59;99429.25;7713178;32;38093;-86
2023/03/15 17:19:36;;;;;;;6.87;2.92;;;;;;;7.80;31.73;99432.62;7699469;32;40026;-86
2023/03/15 17:23:53;;;;;;;4.53;2.83;;;;;;;7.38;31.95;99442.38;7713038;32;41645;-86
2023/03/15 17:28:10;;;;;;;8.05;3.05;;;;;;;7.17;32.52;99445.97;7713266;32;36136;-86
2023/03/15 17:32:27;;;;;;;4.57;3.25;;;;;;;6.98;33.18;99462.59;7712934;32;37037;-86
2023/03/15 17:36:44;;;;;;;4.30;3.33;;;;;;;6.81;33.44;99464.59;7712989;32;39109;-85
2023/03/15 17:41:01;;;;;;;4.15;2.70;;;;;;;6.94;33.40;99469.63;7712750;32;40747;-86
2023/03/15 17:45:23;;;;;;;6.05;3.08;;;;;;;7.20;32.75;99478.00;7712733;32;38540;-86
2023/03/15 17:49:39;;;;;;;5.07;3.00;;;;;;;6.90;32.98;99496.41;7712957;32;39202;-86
2023/03/15 17:53:58;;;;;;;6.18;3.37;;;;;;;6.92;33.46;99496.16;7698867;32;39004;-85
2023/03/15 17:58:19;;;;;;;5.65;3.72;;;;;;;6.45;33.42;99504.81;7712741;32;39968;-86
2023/03/15 18:02:36;;;;;;;6.70;2.97;;;;;;;6.87;33.44;99501.53;7712551;32;39194;-86
2023/03/15 18:06:58;;;;;;;6.28;3.62;;;;;;;6.87;33.03;99509.66;7712581;32;37618;-86
2023/03/15 18:11:27;;;;;;;4.55;2.92;;;;;;;6.95;33.18;99520.87;7712657;32;40151;-85
2023/03/15 18:15:48;;;;;;;6.68;3.47;;;;;;;6.95;33.56;99539.00;7699108;32;39644;-86
2023/03/15 18:20:07;;;;;;;8.00;3.35;;;;;;;6.66;33.69;99541.94;7712767;32;37859;-86
2023/03/15 18:24:26;;;;;;;5.43;3.37;;;;;;;6.73;33.15;99542.56;7713076;32;36802;-86
2023/03/15 18:28:42;;;;;;;10.13;3.72;;;;;;;7.01;32.72;99559.69;7712278;32;39825;-86
2023/03/15 18:32:59;;;;;;;7.95;3.17;;;;;;;7.08;32.58;99565.72;7712107;32;39833;-86
2023/03/15 18:37:16;;;;;;;4.47;2.90;;;;;;;6.68;34.18;99572.28;7698266;32;37565;-85
2023/03/15 18:41:32;;;;;;;7.30;3.50;;;;;;;6.64;32.97;99570.31;7712103;32;37273;-85
2023/03/15 18:45:49;;;;;;;8.82;3.47;;;;;;;6.51;33.24;99568.81;7712309;32;39386;-86
2023/03/15 18:50:06;;;;;;;6.53;3.20;;;;;;;6.68;33.26;99585.84;7712314;32;40926;-86
2023/03/15 18:54:26;;;;;;;5.07;3.12;;;;;;;6.58;33.31;99594.63;7699091;32;37822;-85
2023/03/15 18:58:42;;;;;;;4.90;3.10;;;;;;;6.38;33.15;99591.66;7712062;32;36682;-85
2023/03/15 19:03:00;;;;;;;8.32;3.45;;;;;;;6.51;33.13;99593.19;7711988;32;39467;-86
2023/03/15 19:07:16;;;;;;;4.12;3.17;;;;;;;6.54;32.68;99604.34;7698289;32;39853;-86
2023/03/15 19:11:36;;;;;;;5.93;2.97;;;;;;;6.42;32.76;99602.81;7711856;32;37934;-85
2023/03/15 19:15:54;;;;;;;5.45;3.10;;;;;;;6.27;34.16;99612.34;7711743;32;37039;-85
2023/03/15 19:20:13;;;;;;;5.50;3.15;;;;;;;6.44;33.12;99600.69;7697968;32;39459;-85
2023/03/15 19:24:31;;;;;;;8.00;3.70;;;;;;;6.34;34.25;99601.34;7711690;32;41126;-86
2023/03/15 19:28:48;;;;;;;6.47;3.33;;;;;;;6.50;34.38;99602.38;7710944;32;37267;-86
2023/03/15 19:33:04;;;;;;;8.20;3.30;;;;;;;6.15;34.23;99600.78;7711513;32;37137;-86
2023/03/15 19:37:21;;;;;;;6.22;3.20;;;;;;;6.30;34.56;99606.44;7711683;32;38898;-86
2023/03/15 19:41:37;;;;;;;5.28;3.42;;;;;;;6.41;33.88;99618.22;7710132;32;39639;-85
2023/03/15 19:45:53;;;;;;;4.93;3.45;;;;;;;6.22;34.24;99620.37;7711296;32;36297;-85
2023/03/15 19:50:11;;;;;;;7.03;3.22;;;;;;;6.05;34.96;99624.97;7710654;32;37694;-85
2023/03/15 19:54:31;;;;;;;6.10;3.33;;;;;;;5.89;34.17;99632.00;7711251;32;39367;-85
2023/03/15 19:58:47;;;;;;;8.35;3.67;;;;;;;6.10;33.97;99641.31;7711279;32;39906;-86
2023/03/15 20:03:04;;;;;;;9.45;3.58;;;;;;;5.74;35.29;99641.47;7711349;32;37462;-85
2023/03/15 20:07:20;;;;;;;6.20;3.70;;;;;;;5.88;35.33;99655.53;7711462;32;37296;-85
2023/03/15 20:11:36;;;;;;;12.05;3.95;;;;;;;6.21;34.63;99659.38;7711217;32;39626;-86
2023/03/15 20:15:53;;;;;;;4.80;3.17;;;;;;;6.14;35.19;99664.94;7710826;32;41000;-86
2023/03/15 20:20:11;;;;;;;12.02;4.15;;;;;;;6.06;36.11;99675.34;7710636;32;38661;-86
2023/03/15 20:24:28;;;;;;;8.32;3.70;;;;;;;6.12;35.25;99685.19;7697313;32;36855;-86
2023/03/15 20:28:45;;;;;;;9.43;4.07;;;;;;;6.12;35.51;99679.78;7710869;32;39359;-86
2023/03/15 20:33:02;;;;;;;6.70;3.45;;;;;;;6.00;36.59;99688.78;7697186;32;39659;-86
2023/03/15 20:37:18;;;;;;;6.28;3.70;;;;;;;6.28;35.92;99687.09;7710686;32;37871;-85